Time;durP1;ratioP1;P1;durP2;ratioP2;P2;SDS_P1;SDS_P2;PMS_P1;PMS_P2;Temp;Humidity;BMP_temperature;BMP_pressure;BME280_temperature;BME280_humidity;BME280_pressure;Samples;Min_cycle;Max_cycle;Signal;HPM_P1;HPM_P2
2021/12/12 00:04:04;;;;;;;17.65;8.15;;;2.20;99.90;;;;;;20595183;28;20066;-78
2021/12/12 00:14:08;;;;;;;22.73;7.85;;;2.10;99.90;;;;;;20595796;28;20141;-77
2021/12/12 00:24:12;;;;;;;19.45;8.30;;;2.00;99.90;;;;;;20600874;28;20042;-77
2021/12/12 00:34:14;;;;;;;18.08;8.02;;;1.90;99.90;;;;;;20628106;28;20058;-77
2021/12/12 00:44:15;;;;;;;18.25;8.50;;;1.70;99.90;;;;;;20629432;28;20039;-77
2021/12/12 00:54:19;;;;;;;16.98;8.20;;;1.40;99.90;;;;;;20627545;28;20038;-77
2021/12/12 01:04:30;;;;;;;14.95;7.93;;;1.20;99.90;;;;;;20656637;28;20406;-77
2021/12/12 01:14:35;;;;;;;16.97;5.83;;;1.20;99.90;;;;;;20667529;28;20053;-77
2021/12/12 01:24:42;;;;;;;20.50;7.88;;;1.10;99.90;;;;;;20665674;28;20121;-77
2021/12/12 01:34:44;;;;;;;20.23;7.90;;;0.90;99.90;;;;;;20666299;28;20433;-77
2021/12/12 01:45:01;;;;;;;21.88;9.25;;;0.70;99.90;;;;;;20665350;28;20054;-78
2021/12/12 01:55:20;;;;;;;17.88;8.38;;;0.80;99.90;;;;;;20664364;28;20034;-77
2021/12/12 02:05:23;;;;;;;19.38;8.05;;;0.70;99.90;;;;;;20663823;28;20034;-77
2021/12/12 02:15:25;;;;;;;21.92;9.02;;;0.80;99.90;;;;;;20663252;28;20128;-77
2021/12/12 02:35:49;;;;;;;13.63;8.02;;;0.60;99.90;;;;;;20672530;28;20493;-76
2021/12/12 02:45:55;;;;;;;22.38;7.85;;;0.80;99.90;;;;;;20678191;28;20034;-77
2021/12/12 02:56:07;;;;;;;21.90;7.68;;;0.90;99.90;;;;;;20677287;28;20076;-76
2021/12/12 03:06:11;;;;;;;22.83;10.00;;;0.60;99.90;;;;;;20676620;28;20041;-76
2021/12/12 03:16:13;;;;;;;15.02;7.32;;;0.80;99.90;;;;;;20675880;28;20069;-76
2021/12/12 03:26:16;;;;;;;22.05;9.98;;;0.80;99.90;;;;;;20675224;28;20035;-77
2021/12/12 03:36:18;;;;;;;19.48;8.38;;;0.50;99.90;;;;;;20674251;28;20575;-77
2021/12/12 03:46:20;;;;;;;26.83;7.90;;;0.40;99.90;;;;;;20672498;28;20045;-77
2021/12/12 03:56:21;;;;;;;25.98;8.88;;;0.20;99.90;;;;;;20671538;28;20038;-77
2021/12/12 04:06:25;;;;;;;18.40;6.15;;;0.00;99.90;;;;;;20672075;28;20485;-76
2021/12/12 04:16:28;;;;;;;20.65;5.95;;;0.00;99.90;;;;;;20671626;28;20042;-77
2021/12/12 04:26:36;;;;;;;16.02;5.53;;;-0.30;99.90;;;;;;20670764;28;20474;-77
2021/12/12 04:36:44;;;;;;;14.35;6.20;;;-0.40;99.90;;;;;;20669753;28;20172;-75
2021/12/12 04:57:38;;;;;;;15.77;6.03;;;-0.60;99.90;;;;;;20667901;28;20038;-76
2021/12/12 05:07:48;;;;;;;15.45;5.93;;;-0.50;99.90;;;;;;20669698;28;20038;-77
2021/12/12 05:17:54;;;;;;;142.13;8.60;;;-0.30;99.90;;;;;;20667128;28;20042;-75
2021/12/12 05:27:58;;;;;;;41.25;6.85;;;-0.30;99.90;;;;;;20665754;28;20041;-74
2021/12/12 05:38:00;;;;;;;163.23;12.70;;;-0.20;99.90;;;;;;20665118;28;20038;-75
2021/12/12 05:48:05;;;;;;;134.13;10.57;;;-0.70;99.90;;;;;;20664277;28;20034;-75
2021/12/12 05:58:09;;;;;;;108.47;9.93;;;-0.90;99.90;;;;;;20663416;28;20038;-75
2021/12/12 06:08:11;;;;;;;22.83;6.40;;;-1.00;99.90;;;;;;20662510;28;20033;-74
2021/12/12 06:18:13;;;;;;;63.05;7.80;;;-1.00;99.90;;;;;;20662328;28;20121;-74
2021/12/12 06:28:30;;;;;;;25.90;9.40;;;-1.20;99.90;;;;;;20662053;28;20031;-75
2021/12/12 06:38:32;;;;;;;81.90;12.32;;;-0.80;99.90;;;;;;20662188;28;20046;-75
2021/12/12 06:48:34;;;;;;;161.68;12.82;;;-0.60;99.90;;;;;;20659580;28;20058;-75
2021/12/12 06:58:35;;;;;;;250.85;26.90;;;-0.50;99.90;;;;;;20661351;28;20058;-75
2021/12/12 07:08:36;;;;;;;50.03;10.73;;;-0.40;99.90;;;;;;20660735;28;20113;-75
2021/12/12 07:18:37;;;;;;;36.05;12.18;;;-0.40;99.90;;;;;;20666262;28;20065;-75
2021/12/12 07:28:41;;;;;;;64.78;12.32;;;-0.30;99.90;;;;;;20673833;28;20034;-75
2021/12/12 07:38:45;;;;;;;127.13;13.20;;;-0.40;99.90;;;;;;20669139;28;20027;-74
2021/12/12 07:48:48;;;;;;;61.70;13.27;;;-0.40;99.90;;;;;;20673977;28;20022;-74
2021/12/12 07:58:50;;;;;;;32.25;11.13;;;-0.20;99.90;;;;;;20672533;28;20177;-75
2021/12/12 08:08:52;;;;;;;97.10;17.48;;;-0.20;99.90;;;;;;20672080;28;20509;-74
2021/12/12 08:18:56;;;;;;;67.82;14.23;;;-0.10;99.90;;;;;;20671125;28;20398;-74
2021/12/12 08:28:58;;;;;;;65.45;15.18;;;0.00;99.90;;;;;;20670172;28;20031;-76
2021/12/12 08:38:59;;;;;;;47.75;14.70;;;0.00;99.90;;;;;;20655750;28;20371;-76
2021/12/12 08:49:02;;;;;;;50.72;15.18;;;0.20;99.90;;;;;;20625209;28;20113;-75
2021/12/12 08:59:03;;;;;;;39.50;14.07;;;0.30;99.90;;;;;;20629638;28;20062;-75
2021/12/12 09:09:20;;;;;;;51.60;15.15;;;0.50;99.90;;;;;;20625481;28;20033;-75
2021/12/12 09:19:30;;;;;;;36.58;13.00;;;1.00;99.90;;;;;;20622572;28;20041;-75
2021/12/12 09:29:30;;;;;;;40.60;13.93;;;0.90;99.90;;;;;;20629171;28;21394;-74
2021/12/12 09:40:18;;;;;;;66.22;15.13;;;0.80;99.90;;;;;;20645993;28;20126;-76
2021/12/12 09:51:15;;;;;;;44.33;18.52;;;0.80;99.90;;;;;;20567052;28;20042;-76
2021/12/12 10:01:22;;;;;;;63.05;15.90;;;0.90;99.90;;;;;;20576003;28;20134;-76
2021/12/12 10:11:33;;;;;;;95.45;19.52;;;1.20;99.90;;;;;;20587716;28;20121;-76
2021/12/12 10:21:41;;;;;;;51.13;17.20;;;1.50;99.90;;;;;;20586258;28;20154;-76
2021/12/12 10:32:09;;;;;;;41.65;16.30;;;1.60;99.90;;;;;;20585943;28;20031;-76
2021/12/12 10:42:15;;;;;;;47.30;17.90;;;1.70;99.90;;;;;;20585823;28;20862;-76
2021/12/12 10:52:25;;;;;;;39.72;15.77;;;1.90;99.90;;;;;;20589302;28;20045;-77
2021/12/12 11:02:34;;;;;;;37.15;15.88;;;2.20;99.90;;;;;;20601482;28;20062;-77
2021/12/12 11:12:42;;;;;;;33.13;15.00;;;2.00;99.90;;;;;;20601292;28;20061;-77
2021/12/12 11:22:50;;;;;;;34.47;15.68;;;2.10;99.90;;;;;;20602720;28;20034;-76
2021/12/12 11:32:54;;;;;;;37.92;17.35;;;2.30;99.90;;;;;;20599134;28;20035;-77
2021/12/12 11:43:17;;;;;;;34.05;15.13;;;2.20;99.90;;;;;;20601973;28;20034;-77
2021/12/12 11:53:40;;;;;;;34.40;15.43;;;2.20;99.90;;;;;;20598537;28;20135;-77
2021/12/12 12:04:02;;;;;;;35.65;17.98;;;2.10;99.90;;;;;;20596562;28;20030;-75
2021/12/12 12:14:05;;;;;;;37.72;14.98;;;2.20;99.90;;;;;;20595580;28;20026;-75
2021/12/12 12:24:43;;;;;;;39.40;16.33;;;2.20;99.90;;;;;;20596063;28;20095;-77
2021/12/12 12:34:49;;;;;;;32.13;14.80;;;2.20;99.90;;;;;;20599576;28;20045;-76
2021/12/12 12:45:29;;;;;;;31.08;14.48;;;2.40;99.90;;;;;;20598803;28;20034;-77
2021/12/12 12:56:08;;;;;;;34.13;15.57;;;2.40;99.90;;;;;;20603321;28;20057;-77
2021/12/12 13:06:47;;;;;;;27.02;12.95;;;2.50;99.90;;;;;;20603128;28;20073;-79
2021/12/12 13:16:52;;;;;;;25.02;12.75;;;2.60;99.90;;;;;;20607651;28;20038;-77
2021/12/12 13:27:28;;;;;;;29.33;14.20;;;2.50;99.90;;;;;;20596487;28;20043;-77
2021/12/12 13:38:03;;;;;;;30.20;13.32;;;2.50;99.90;;;;;;20590717;28;20371;-77
2021/12/12 13:48:16;;;;;;;25.42;12.18;;;2.70;99.90;;;;;;20577550;28;20116;-76
2021/12/12 13:58:17;;;;;;;27.42;12.65;;;2.50;99.90;;;;;;20587164;28;20113;-76
2021/12/12 14:08:23;;;;;;;27.23;13.68;;;2.40;99.90;;;;;;20584582;28;20038;-77
2021/12/12 14:18:30;;;;;;;25.95;11.95;;;2.40;99.90;;;;;;20585951;28;20058;-77
2021/12/12 14:28:36;;;;;;;24.42;11.82;;;2.40;99.90;;;;;;20584581;28;20066;-76
2021/12/12 14:38:37;;;;;;;26.48;11.98;;;2.40;99.90;;;;;;20584921;28;20022;-76
2021/12/12 14:48:46;;;;;;;44.95;17.10;;;2.50;99.90;;;;;;20584091;28;20521;-77
2021/12/12 14:58:56;;;;;;;26.65;13.38;;;2.40;99.90;;;;;;20584653;28;20030;-76
2021/12/12 15:09:13;;;;;;;25.80;12.35;;;2.30;99.90;;;;;;20584148;28;20632;-77
2021/12/12 15:19:19;;;;;;;28.38;13.10;;;2.30;99.90;;;;;;20583042;28;20073;-77
2021/12/12 15:29:25;;;;;;;27.40;12.35;;;2.20;99.90;;;;;;20583022;28;20034;-75
2021/12/12 15:39:30;;;;;;;27.42;13.82;;;2.10;99.90;;;;;;20586229;28;20498;-77
2021/12/12 15:49:46;;;;;;;45.60;20.55;;;2.10;99.90;;;;;;20597122;28;20030;-77
2021/12/12 15:59:51;;;;;;;22.67;11.75;;;1.90;99.90;;;;;;20596495;28;20037;-76
2021/12/12 16:10:11;;;;;;;29.30;14.02;;;1.70;99.90;;;;;;20595440;28;20742;-76
2021/12/12 16:20:29;;;;;;;27.02;14.15;;;1.50;99.90;;;;;;20594617;28;20045;-76
2021/12/12 16:30:37;;;;;;;32.85;14.68;;;1.40;99.90;;;;;;20594066;28;20057;-76
2021/12/12 16:40:43;;;;;;;29.90;14.75;;;1.50;99.90;;;;;;20591599;28;20046;-77
2021/12/12 16:50:57;;;;;;;29.30;14.30;;;1.70;99.90;;;;;;20591879;28;20034;-74
2021/12/12 17:01:09;;;;;;;28.35;13.75;;;1.60;99.90;;;;;;20592520;28;20048;-76
2021/12/12 17:11:13;;;;;;;29.15;12.43;;;1.70;99.90;;;;;;20590869;28;20520;-76
2021/12/12 17:21:17;;;;;;;25.58;14.13;;;1.80;99.90;;;;;;20589181;28;20134;-77
2021/12/12 17:31:29;;;;;;;28.95;13.57;;;1.80;99.90;;;;;;20589036;28;20494;-75
2021/12/12 17:41:38;;;;;;;28.10;14.35;;;1.80;99.90;;;;;;20588483;28;20521;-76
2021/12/12 17:52:18;;;;;;;29.88;14.50;;;1.70;99.90;;;;;;20651909;28;20034;-76
2021/12/12 18:02:23;;;;;;;25.52;12.95;;;1.60;99.90;;;;;;20655819;28;20030;-76
2021/12/12 18:12:24;;;;;;;21.35;11.05;;;1.60;99.90;;;;;;20585198;28;20501;-77
2021/12/12 18:22:39;;;;;;;24.00;12.02;;;1.60;99.90;;;;;;20592934;28;20034;-78
2021/12/12 18:32:49;;;;;;;27.45;13.00;;;1.70;99.90;;;;;;20591309;28;20046;-78
2021/12/12 18:42:51;;;;;;;22.77;12.13;;;1.50;99.90;;;;;;20628225;28;20121;-77
2021/12/12 18:53:29;;;;;;;28.65;13.35;;;1.50;99.90;;;;;;20657001;28;20038;-78
2021/12/12 19:03:42;;;;;;;28.55;12.82;;;1.50;99.90;;;;;;20649180;28;20042;-78
2021/12/12 19:13:46;;;;;;;26.23;12.70;;;1.60;99.90;;;;;;20666043;28;20612;-78
2021/12/12 19:24:09;;;;;;;25.67;12.48;;;1.60;99.90;;;;;;20677466;28;20034;-77
2021/12/12 19:34:14;;;;;;;27.33;12.40;;;1.50;99.90;;;;;;20675143;28;20034;-76
2021/12/12 19:44:25;;;;;;;29.08;13.07;;;1.50;99.90;;;;;;20672956;28;20489;-76
2021/12/12 19:54:32;;;;;;;32.05;13.88;;;1.60;99.90;;;;;;20673482;28;20045;-77
2021/12/12 20:04:41;;;;;;;31.70;13.55;;;1.60;99.90;;;;;;20672741;28;20026;-76
2021/12/12 20:14:50;;;;;;;33.08;13.80;;;1.70;99.90;;;;;;20672000;28;20037;-75
2021/12/12 20:25:07;;;;;;;39.60;13.82;;;1.70;99.90;;;;;;20668972;28;20034;-76
2021/12/12 20:35:18;;;;;;;29.40;12.77;;;1.80;99.90;;;;;;20670644;28;20030;-76
2021/12/12 20:45:28;;;;;;;37.95;14.82;;;1.80;99.90;;;;;;20669972;28;20457;-75
2021/12/12 20:55:39;;;;;;;34.88;14.68;;;1.60;99.90;;;;;;20669046;28;20730;-77
2021/12/12 21:05:51;;;;;;;37.37;15.23;;;1.70;99.90;;;;;;20665151;28;20038;-77
2021/12/12 21:15:57;;;;;;;42.50;15.43;;;1.70;99.90;;;;;;20667733;28;20172;-78
2021/12/12 21:26:03;;;;;;;33.35;13.57;;;1.70;99.90;;;;;;20656205;28;20030;-78
2021/12/12 21:36:50;;;;;;;46.15;16.35;;;1.70;99.90;;;;;;20630531;28;20026;-78
2021/12/12 21:46:51;;;;;;;43.22;17.42;;;1.60;99.90;;;;;;20556644;28;20070;-79
2021/12/12 21:56:52;;;;;;;46.75;16.80;;;1.60;99.90;;;;;;20613131;28;20105;-76
2021/12/12 22:06:58;;;;;;;37.15;15.43;;;1.70;99.90;;;;;;20622575;28;20065;-76
2021/12/12 22:17:05;;;;;;;38.55;15.18;;;1.70;99.90;;;;;;20621853;28;20043;-76
2021/12/12 22:27:16;;;;;;;44.30;17.73;;;1.70;99.90;;;;;;20623818;28;20113;-77
2021/12/12 22:37:20;;;;;;;47.60;16.65;;;1.70;99.90;;;;;;20616994;28;20038;-79
2021/12/12 22:47:23;;;;;;;37.67;15.82;;;1.80;99.90;;;;;;20624792;28;20044;-78
2021/12/12 22:57:35;;;;;;;37.03;17.10;;;1.80;99.90;;;;;;20675503;28;20034;-79
2021/12/12 23:07:44;;;;;;;37.95;16.10;;;1.80;99.90;;;;;;20645282;28;20027;-78
2021/12/12 23:17:49;;;;;;;37.55;15.60;;;1.80;99.90;;;;;;20643861;28;20038;-75
2021/12/12 23:28:10;;;;;;;43.65;17.52;;;1.80;99.90;;;;;;20635177;28;20034;-77
2021/12/12 23:38:16;;;;;;;40.00;16.93;;;1.80;99.90;;;;;;20634057;28;20073;-77
2021/12/12 23:48:29;;;;;;;38.95;15.90;;;1.80;99.90;;;;;;20634959;28;20030;-78
2021/12/12 23:58:38;;;;;;;47.78;19.13;;;1.80;99.90;;;;;;20631554;28;20038;-77
